CheckWX is a tool to help pilots better visualize weather data.  It is not intended as a substitute for an official pre-flight weather briefing.

20:42:56 UTC

KGUS TAF
Grissom ARB Airport
Peru, Indiana, USA
TAF KGUS 221100Z 2211/2317 29009KT 9999 SKC QNH2985INS BECMG 2214/2215 34020G30KT 9999 SCT015 520003 QNH2998INS BECMG 2219/2220 34015G25KT 9999 SKC QNH3005INS BECMG 2300/2301 33009KT 9999 SKC QNH3019INS WND VRB06KT AFT 2308 TX06/2220Z TNM04/2311Z

Mar-22@
11:00 UTC

Mar-22 @ 11:00 UTC

Mar-22@
14:00 UTC

Mar-22 @ 14:00 UTC

TAF KGUS 221100Z 2211/2317 29009KT 9999 SKC QNH2985INS

Expired

Wind
  • 290° at 9 KTS
Cloud Levels
  • Clear skies

Mar-22@
14:00 UTC

Mar-22 @ 14:00 UTC

Mar-22@
19:00 UTC

Mar-22 @ 19:00 UTC

BECMG 2214/2215 34020G30KT 9999 SCT015 520003 QNH2998INS

Expired

Wind
  • 340° at 20 KTS
  • {Gusting to 30 KTS
Cloud Levels
  • Scattered at 1,500' AGL
Turbulence
< Occasional moderate clear air turbulence expected at the surface extending to 3,000' AGL

Mar-22@
19:00 UTC

Mar-22 @ 19:00 UTC

Mar-23@
00:00 UTC

Mar-23 @ 00:00 UTC

BECMG 2219/2220 34015G25KT 9999 SKC QNH3005INS

Becoming

Becoming Conditions expected by Fri, Mar 22, 2019 @ 20:00 UTC

Wind
  • 340° at 15 KTS
  • {Gusting to 25 KTS
Cloud Levels
  • Clear skies

Mar-23@
00:00 UTC

Mar-23 @ 00:00 UTC

Mar-23@
17:00 UTC

Mar-23 @ 17:00 UTC

BECMG 2300/2301 33009KT 9999 SKC QNH3019INS WND VRB06KT AFT 2308 TX06/2220Z TNM04/2311Z

Becoming

Becoming Conditions expected by Sat, Mar 23, 2019 @ 01:00 UTC

Wind
  • 330° at 9 KTS
Cloud Levels
  • Clear skies